sensor_id;sensor_type;location;lat;lon;timestamp;pressure;altitude;pressure_sealevel;temperature;humidity
26859;BME280;14429;48.346;16.338;2022-07-23T00:01:05;99582.22;;;30.70;41.13
26859;BME280;14429;48.346;16.338;2022-07-23T00:03:30;99589.56;;;30.76;40.69
26859;BME280;14429;48.346;16.338;2022-07-23T00:05:56;99590.78;;;30.63;40.34
26859;BME280;14429;48.346;16.338;2022-07-23T00:08:21;99586.41;;;30.08;41.99
26859;BME280;14429;48.346;16.338;2022-07-23T00:10:47;99591.47;;;29.94;41.41
26859;BME280;14429;48.346;16.338;2022-07-23T00:13:12;99589.66;;;29.88;42.14
26859;BME280;14429;48.346;16.338;2022-07-23T00:15:38;99590.63;;;29.34;43.78
26859;BME280;14429;48.346;16.338;2022-07-23T00:18:05;99597.84;;;28.37;47.38
26859;BME280;14429;48.346;16.338;2022-07-23T00:20:30;99588.28;;;28.52;47.16
26859;BME280;14429;48.346;16.338;2022-07-23T00:22:56;99589.06;;;28.66;46.46
26859;BME280;14429;48.346;16.338;2022-07-23T00:25:23;99594.41;;;28.85;45.94
26859;BME280;14429;48.346;16.338;2022-07-23T00:27:48;99589.19;;;29.31;44.34
26859;BME280;14429;48.346;16.338;2022-07-23T00:30:14;99586.75;;;29.65;43.00
26859;BME280;14429;48.346;16.338;2022-07-23T00:32:47;99576.66;;;29.77;42.85
26859;BME280;14429;48.346;16.338;2022-07-23T00:35:14;99574.66;;;30.02;42.48
26859;BME280;14429;48.346;16.338;2022-07-23T00:37:39;99587.19;;;29.62;43.80
26859;BME280;14429;48.346;16.338;2022-07-23T00:40:06;99583.22;;;29.94;42.71
26859;BME280;14429;48.346;16.338;2022-07-23T00:42:32;99584.81;;;30.01;42.55
26859;BME280;14429;48.346;16.338;2022-07-23T00:44:57;99587.13;;;30.22;42.09
26859;BME280;14429;48.346;16.338;2022-07-23T00:47:23;99598.81;;;30.35;41.63
26859;BME280;14429;48.346;16.338;2022-07-23T00:49:48;99590.94;;;30.50;41.44
26859;BME280;14429;48.346;16.338;2022-07-23T00:52:15;99591.56;;;30.69;40.97
26859;BME280;14429;48.346;16.338;2022-07-23T00:54:41;99588.94;;;30.74;40.78
26859;BME280;14429;48.346;16.338;2022-07-23T00:57:07;99600.66;;;29.88;45.13
26859;BME280;14429;48.346;16.338;2022-07-23T00:59:32;99591.56;;;30.52;41.42
26859;BME280;14429;48.346;16.338;2022-07-23T01:01:58;99602.13;;;30.72;40.77
26859;BME280;14429;48.346;16.338;2022-07-23T01:04:23;99591.34;;;30.82;40.61
26859;BME280;14429;48.346;16.338;2022-07-23T01:06:49;99596.41;;;30.85;40.29
26859;BME280;14429;48.346;16.338;2022-07-23T01:09:17;99601.44;;;30.88;40.37
26859;BME280;14429;48.346;16.338;2022-07-23T01:11:42;99588.13;;;30.85;40.27
26859;BME280;14429;48.346;16.338;2022-07-23T01:14:10;99583.81;;;30.89;40.37
26859;BME280;14429;48.346;16.338;2022-07-23T01:16:35;99587.31;;;30.96;40.17
26859;BME280;14429;48.346;16.338;2022-07-23T01:19:01;99591.16;;;30.95;40.16
26859;BME280;14429;48.346;16.338;2022-07-23T01:21:26;99595.19;;;30.81;40.46
26859;BME280;14429;48.346;16.338;2022-07-23T01:23:54;99595.31;;;30.86;40.31
26859;BME280;14429;48.346;16.338;2022-07-23T01:26:19;99599.16;;;30.85;40.38
26859;BME280;14429;48.346;16.338;2022-07-23T01:28:44;99600.31;;;30.78;40.38
26859;BME280;14429;48.346;16.338;2022-07-23T01:31:10;99602.84;;;30.79;40.06
26859;BME280;14429;48.346;16.338;2022-07-23T01:33:36;99617.22;;;30.81;40.43
26859;BME280;14429;48.346;16.338;2022-07-23T01:36:01;99627.50;;;30.74;40.29
26859;BME280;14429;48.346;16.338;2022-07-23T01:38:27;99635.19;;;30.72;40.43
26859;BME280;14429;48.346;16.338;2022-07-23T01:40:53;99635.28;;;30.66;40.77
26859;BME280;14429;48.346;16.338;2022-07-23T01:43:19;99649.34;;;29.87;42.76
26859;BME280;14429;48.346;16.338;2022-07-23T01:45:44;99653.28;;;30.33;41.51
26859;BME280;14429;48.346;16.338;2022-07-23T01:48:10;99650.44;;;30.39;40.95
26859;BME280;14429;48.346;16.338;2022-07-23T01:50:35;99647.72;;;29.98;41.94
26859;BME280;14429;48.346;16.338;2022-07-23T01:53:01;99644.31;;;30.20;41.37
26859;BME280;14429;48.346;16.338;2022-07-23T01:55:27;99653.63;;;29.83;42.35
26859;BME280;14429;48.346;16.338;2022-07-23T01:57:54;99640.16;;;29.52;43.88
26859;BME280;14429;48.346;16.338;2022-07-23T02:00:19;99645.59;;;29.82;42.22
26859;BME280;14429;48.346;16.338;2022-07-23T02:02:45;99634.78;;;29.63;42.94
26859;BME280;14429;48.346;16.338;2022-07-23T02:05:10;99629.84;;;29.89;42.33
26859;BME280;14429;48.346;16.338;2022-07-23T02:07:36;99618.53;;;29.61;42.80
26859;BME280;14429;48.346;16.338;2022-07-23T02:10:01;99606.16;;;29.70;42.86
26859;BME280;14429;48.346;16.338;2022-07-23T02:12:27;99601.09;;;29.85;42.46
26859;BME280;14429;48.346;16.338;2022-07-23T02:14:54;99610.22;;;30.03;42.15
26859;BME280;14429;48.346;16.338;2022-07-23T02:17:19;99604.31;;;29.64;43.66
26859;BME280;14429;48.346;16.338;2022-07-23T02:19:45;99586.56;;;29.60;43.26
26859;BME280;14429;48.346;16.338;2022-07-23T02:22:10;99584.06;;;29.59;43.18
26859;BME280;14429;48.346;16.338;2022-07-23T02:24:36;99572.44;;;29.75;43.03
26859;BME280;14429;48.346;16.338;2022-07-23T02:27:01;99568.59;;;28.86;45.52
26859;BME280;14429;48.346;16.338;2022-07-23T02:29:27;99557.34;;;28.33;47.08
26859;BME280;14429;48.346;16.338;2022-07-23T02:31:53;99538.91;;;27.47;51.30
26859;BME280;14429;48.346;16.338;2022-07-23T02:34:19;99533.06;;;27.31;51.41
26859;BME280;14429;48.346;16.338;2022-07-23T02:36:44;99522.28;;;27.48;50.98
26859;BME280;14429;48.346;16.338;2022-07-23T02:39:10;99510.50;;;27.41;51.07
26859;BME280;14429;48.346;16.338;2022-07-23T02:41:35;99461.91;;;26.67;53.07
26859;BME280;14429;48.346;16.338;2022-07-23T02:44:01;99451.81;;;26.42;53.55
26859;BME280;14429;48.346;16.338;2022-07-23T02:46:27;99470.25;;;26.01;55.10
26859;BME280;14429;48.346;16.338;2022-07-23T02:48:54;99467.28;;;25.90;55.53
26859;BME280;14429;48.346;16.338;2022-07-23T02:51:19;99472.44;;;26.44;52.92
26859;BME280;14429;48.346;16.338;2022-07-23T02:53:45;99483.78;;;28.17;47.41
26859;BME280;14429;48.346;16.338;2022-07-23T02:56:10;99499.13;;;27.94;47.94
26859;BME280;14429;48.346;16.338;2022-07-23T02:58:36;99532.84;;;28.68;45.49
26859;BME280;14429;48.346;16.338;2022-07-23T03:01:01;99534.44;;;29.48;43.76
26859;BME280;14429;48.346;16.338;2022-07-23T03:03:27;99508.50;;;28.96;45.87
26859;BME280;14429;48.346;16.338;2022-07-23T03:05:54;99491.84;;;28.67;45.94
26859;BME280;14429;48.346;16.338;2022-07-23T03:08:19;99523.09;;;29.38;43.85
26859;BME280;14429;48.346;16.338;2022-07-23T03:10:45;99552.97;;;29.76;42.54
26859;BME280;14429;48.346;16.338;2022-07-23T03:13:10;99571.75;;;29.79;42.47
26859;BME280;14429;48.346;16.338;2022-07-23T03:15:36;99584.59;;;29.85;42.61
26859;BME280;14429;48.346;16.338;2022-07-23T03:18:01;99583.09;;;28.75;45.54
26859;BME280;14429;48.346;16.338;2022-07-23T03:20:27;99580.50;;;28.80;45.24
26859;BME280;14429;48.346;16.338;2022-07-23T03:22:54;99581.56;;;29.09;44.18
26859;BME280;14429;48.346;16.338;2022-07-23T03:25:19;99571.75;;;28.65;45.32
26859;BME280;14429;48.346;16.338;2022-07-23T03:27:45;99572.28;;;29.04;44.31
26859;BME280;14429;48.346;16.338;2022-07-23T03:30:11;99578.63;;;28.37;45.39
26859;BME280;14429;48.346;16.338;2022-07-23T03:32:36;99573.22;;;28.31;46.13
26859;BME280;14429;48.346;16.338;2022-07-23T03:35:02;99572.44;;;29.33;43.46
26859;BME280;14429;48.346;16.338;2022-07-23T03:37:28;99564.25;;;29.26;43.43
26859;BME280;14429;48.346;16.338;2022-07-23T03:39:55;99570.81;;;29.50;43.30
26859;BME280;14429;48.346;16.338;2022-07-23T03:42:20;99567.56;;;29.52;43.24
26859;BME280;14429;48.346;16.338;2022-07-23T03:44:45;99569.16;;;28.70;43.60
26859;BME280;14429;48.346;16.338;2022-07-23T03:47:11;99572.53;;;28.72;44.41
26859;BME280;14429;48.346;16.338;2022-07-23T03:49:36;99573.84;;;28.26;45.70
26859;BME280;14429;48.346;16.338;2022-07-23T03:52:02;99581.53;;;27.24;46.81
26859;BME280;14429;48.346;16.338;2022-07-23T03:54:28;99584.06;;;28.56;45.46
26859;BME280;14429;48.346;16.338;2022-07-23T03:56:55;99584.81;;;27.70;45.84
26859;BME280;14429;48.346;16.338;2022-07-23T03:59:20;99585.28;;;28.23;45.93
26859;BME280;14429;48.346;16.338;2022-07-23T04:01:46;99602.38;;;26.80;48.35
26859;BME280;14429;48.346;16.338;2022-07-23T04:04:11;99625.16;;;27.57;46.40
26859;BME280;14429;48.346;16.338;2022-07-23T04:06:37;99611.38;;;27.76;45.77
26859;BME280;14429;48.346;16.338;2022-07-23T04:09:03;99599.69;;;27.31;46.96
26859;BME280;14429;48.346;16.338;2022-07-23T04:11:28;99606.25;;;28.12;46.26
26859;BME280;14429;48.346;16.338;2022-07-23T04:13:55;99614.00;;;28.64;44.76
26859;BME280;14429;48.346;16.338;2022-07-23T04:16:21;99609.94;;;28.30;44.44
26859;BME280;14429;48.346;16.338;2022-07-23T04:18:46;99609.31;;;27.72;46.84
26859;BME280;14429;48.346;16.338;2022-07-23T04:21:11;99609.50;;;28.33;44.73
26859;BME280;14429;48.346;16.338;2022-07-23T04:23:37;99604.06;;;28.94;43.82
26859;BME280;14429;48.346;16.338;2022-07-23T04:26:02;99596.94;;;29.17;43.41
26859;BME280;14429;48.346;16.338;2022-07-23T04:28:28;99588.38;;;28.70;44.25
26859;BME280;14429;48.346;16.338;2022-07-23T04:30:57;99596.06;;;29.40;42.74
26859;BME280;14429;48.346;16.338;2022-07-23T04:33:22;99603.97;;;29.54;42.21
26859;BME280;14429;48.346;16.338;2022-07-23T04:35:48;99608.56;;;29.60;42.50
26859;BME280;14429;48.346;16.338;2022-07-23T04:38:13;99604.59;;;29.56;42.67
26859;BME280;14429;48.346;16.338;2022-07-23T04:40:39;99593.16;;;29.77;41.90
26859;BME280;14429;48.346;16.338;2022-07-23T04:43:05;99600.59;;;29.94;41.70
26859;BME280;14429;48.346;16.338;2022-07-23T04:45:30;99597.84;;;30.12;41.18
26859;BME280;14429;48.346;16.338;2022-07-23T04:47:57;99595.25;;;30.17;41.71
26859;BME280;14429;48.346;16.338;2022-07-23T04:50:22;99597.13;;;30.34;40.51
26859;BME280;14429;48.346;16.338;2022-07-23T04:52:48;99597.16;;;30.45;41.36
26859;BME280;14429;48.346;16.338;2022-07-23T04:55:14;99592.75;;;30.44;40.64
26859;BME280;14429;48.346;16.338;2022-07-23T04:57:39;99587.91;;;30.58;40.37
26859;BME280;14429;48.346;16.338;2022-07-23T05:00:06;99587.91;;;30.58;40.35
26859;BME280;14429;48.346;16.338;2022-07-23T05:02:32;99585.44;;;30.50;40.35
26859;BME280;14429;48.346;16.338;2022-07-23T05:04:59;99584.97;;;30.53;39.94
26859;BME280;14429;48.346;16.338;2022-07-23T05:07:25;99590.69;;;30.40;40.62
26859;BME280;14429;48.346;16.338;2022-07-23T05:09:50;99598.97;;;30.40;40.20
26859;BME280;14429;48.346;16.338;2022-07-23T05:12:16;99604.34;;;30.35;40.53
26859;BME280;14429;48.346;16.338;2022-07-23T05:14:41;99597.28;;;30.39;40.36
26859;BME280;14429;48.346;16.338;2022-07-23T05:17:07;99604.44;;;30.58;40.17
26859;BME280;14429;48.346;16.338;2022-07-23T05:19:33;99602.41;;;30.64;40.21
26859;BME280;14429;48.346;16.338;2022-07-23T05:21:59;99602.50;;;30.87;39.60
26859;BME280;14429;48.346;16.338;2022-07-23T05:24:25;99613.41;;;31.22;38.82
26859;BME280;14429;48.346;16.338;2022-07-23T05:26:51;99605.63;;;31.42;37.89
26859;BME280;14429;48.346;16.338;2022-07-23T05:29:16;99603.84;;;31.93;37.56
26859;BME280;14429;48.346;16.338;2022-07-23T05:31:42;99611.66;;;31.84;37.36
26859;BME280;14429;48.346;16.338;2022-07-23T05:34:07;99605.88;;;32.47;35.75
26859;BME280;14429;48.346;16.338;2022-07-23T05:36:32;99605.31;;;32.73;35.27
26859;BME280;14429;48.346;16.338;2022-07-23T05:38:59;99608.13;;;32.23;36.67
26859;BME280;14429;48.346;16.338;2022-07-23T05:41:25;99610.56;;;31.85;37.44
26859;BME280;14429;48.346;16.338;2022-07-23T05:43:50;99614.28;;;31.79;37.23
26859;BME280;14429;48.346;16.338;2022-07-23T05:46:16;99619.19;;;31.44;37.81
26859;BME280;14429;48.346;16.338;2022-07-23T05:48:41;99625.41;;;31.50;37.68
26859;BME280;14429;48.346;16.338;2022-07-23T05:51:07;99621.44;;;31.35;37.99
26859;BME280;14429;48.346;16.338;2022-07-23T05:53:33;99627.50;;;31.15;38.62
26859;BME280;14429;48.346;16.338;2022-07-23T05:56:00;99637.19;;;31.06;38.42
26859;BME280;14429;48.346;16.338;2022-07-23T05:58:26;99640.03;;;30.88;38.32
26859;BME280;14429;48.346;16.338;2022-07-23T06:00:51;99643.19;;;31.03;38.91
26859;BME280;14429;48.346;16.338;2022-07-23T06:03:17;99653.41;;;30.73;39.02
26859;BME280;14429;48.346;16.338;2022-07-23T06:05:42;99651.09;;;30.53;39.93
26859;BME280;14429;48.346;16.338;2022-07-23T06:08:08;99649.88;;;30.49;39.80
26859;BME280;14429;48.346;16.338;2022-07-23T06:10:33;99650.06;;;30.36;40.10
26859;BME280;14429;48.346;16.338;2022-07-23T06:13:00;99644.09;;;30.39;39.96
26859;BME280;14429;48.346;16.338;2022-07-23T06:15:26;99635.69;;;30.34;40.41
26859;BME280;14429;48.346;16.338;2022-07-23T06:17:51;99625.91;;;30.20;40.24
26859;BME280;14429;48.346;16.338;2022-07-23T06:20:17;99632.59;;;30.42;40.63
26859;BME280;14429;48.346;16.338;2022-07-23T06:22:42;99636.13;;;30.66;40.04
26859;BME280;14429;48.346;16.338;2022-07-23T06:25:08;99635.22;;;30.37;40.23
26859;BME280;14429;48.346;16.338;2022-07-23T06:27:34;99634.47;;;30.30;40.71
26859;BME280;14429;48.346;16.338;2022-07-23T06:30:01;99645.94;;;30.27;43.48
26859;BME280;14429;48.346;16.338;2022-07-23T06:32:27;99628.31;;;30.46;43.74
26859;BME280;14429;48.346;16.338;2022-07-23T06:34:52;99637.38;;;30.35;40.92
26859;BME280;14429;48.346;16.338;2022-07-23T06:37:18;99634.63;;;30.35;40.84
26859;BME280;14429;48.346;16.338;2022-07-23T06:39:44;99625.41;;;30.41;40.99
26859;BME280;14429;48.346;16.338;2022-07-23T06:42:10;99625.72;;;30.51;43.31
26859;BME280;14429;48.346;16.338;2022-07-23T06:44:35;99620.75;;;30.41;41.03
26859;BME280;14429;48.346;16.338;2022-07-23T06:47:05;99618.03;;;30.53;40.76
26859;BME280;14429;48.346;16.338;2022-07-23T06:49:30;99628.44;;;30.68;40.20
26859;BME280;14429;48.346;16.338;2022-07-23T06:51:56;99620.41;;;30.67;40.26
26859;BME280;14429;48.346;16.338;2022-07-23T06:54:21;99626.22;;;30.59;40.44
26859;BME280;14429;48.346;16.338;2022-07-23T06:56:46;99620.47;;;30.61;40.57
26859;BME280;14429;48.346;16.338;2022-07-23T06:59:12;99628.03;;;30.94;39.99
26859;BME280;14429;48.346;16.338;2022-07-23T07:01:38;99639.69;;;31.36;39.91
26859;BME280;14429;48.346;16.338;2022-07-23T07:04:05;99638.97;;;31.29;39.59
26859;BME280;14429;48.346;16.338;2022-07-23T07:06:30;99632.63;;;31.51;42.24
26859;BME280;14429;48.346;16.338;2022-07-23T07:08:56;99627.69;;;31.65;41.69
26859;BME280;14429;48.346;16.338;2022-07-23T07:11:21;99629.28;;;31.72;39.41
26859;BME280;14429;48.346;16.338;2022-07-23T07:13:47;99620.00;;;31.21;39.46
26859;BME280;14429;48.346;16.338;2022-07-23T07:16:13;99616.91;;;31.97;39.91
26859;BME280;14429;48.346;16.338;2022-07-23T07:18:38;99615.38;;;31.78;38.73
26859;BME280;14429;48.346;16.338;2022-07-23T07:21:05;99614.16;;;31.86;39.11
26859;BME280;14429;48.346;16.338;2022-07-23T07:23:31;99617.63;;;31.47;39.56
26859;BME280;14429;48.346;16.338;2022-07-23T07:25:56;99617.88;;;31.69;39.01
26859;BME280;14429;48.346;16.338;2022-07-23T07:28:22;99620.41;;;31.59;39.64
26859;BME280;14429;48.346;16.338;2022-07-23T07:30:47;99614.72;;;31.54;39.18
26859;BME280;14429;48.346;16.338;2022-07-23T07:33:13;99616.06;;;31.51;39.83
26859;BME280;14429;48.346;16.338;2022-07-23T07:35:38;99614.41;;;31.62;40.15
26859;BME280;14429;48.346;16.338;2022-07-23T07:38:05;99627.47;;;31.32;39.74
26859;BME280;14429;48.346;16.338;2022-07-23T07:40:31;99631.28;;;31.43;39.59
26859;BME280;14429;48.346;16.338;2022-07-23T07:42:56;99623.81;;;31.20;40.05
26859;BME280;14429;48.346;16.338;2022-07-23T07:45:23;99622.63;;;31.17;40.69
26859;BME280;14429;48.346;16.338;2022-07-23T07:47:49;99627.31;;;31.27;40.11
26859;BME280;14429;48.346;16.338;2022-07-23T07:50:14;99623.28;;;31.01;40.30
26859;BME280;14429;48.346;16.338;2022-07-23T07:52:40;99628.03;;;30.94;40.38
26859;BME280;14429;48.346;16.338;2022-07-23T07:55:09;99644.88;;;30.75;40.92
26859;BME280;14429;48.346;16.338;2022-07-23T07:57:35;99624.78;;;30.86;40.35
26859;BME280;14429;48.346;16.338;2022-07-23T08:00:01;99641.63;;;30.66;40.60
26859;BME280;14429;48.346;16.338;2022-07-23T08:02:27;99643.38;;;30.90;40.40
26859;BME280;14429;48.346;16.338;2022-07-23T08:04:52;99640.78;;;30.95;40.29
26859;BME280;14429;48.346;16.338;2022-07-23T08:07:18;99637.91;;;31.01;40.13
26859;BME280;14429;48.346;16.338;2022-07-23T08:09:44;99642.91;;;30.93;40.03
26859;BME280;14429;48.346;16.338;2022-07-23T08:12:11;99636.94;;;30.96;40.07
26859;BME280;14429;48.346;16.338;2022-07-23T08:14:37;99633.00;;;31.03;39.62
26859;BME280;14429;48.346;16.338;2022-07-23T08:17:02;99635.78;;;31.15;39.62
26859;BME280;14429;48.346;16.338;2022-07-23T08:19:28;99638.63;;;31.37;39.19
26859;BME280;14429;48.346;16.338;2022-07-23T08:21:54;99643.63;;;31.18;39.77
26859;BME280;14429;48.346;16.338;2022-07-23T08:24:19;99648.06;;;30.90;40.40
26859;BME280;14429;48.346;16.338;2022-07-23T08:26:44;99650.25;;;30.99;39.77
26859;BME280;14429;48.346;16.338;2022-07-23T08:29:11;99655.41;;;30.95;40.23
26859;BME280;14429;48.346;16.338;2022-07-23T08:31:37;99656.56;;;30.88;40.37
26859;BME280;14429;48.346;16.338;2022-07-23T08:34:02;99653.59;;;31.01;39.93
26859;BME280;14429;48.346;16.338;2022-07-23T08:36:28;99648.94;;;31.13;39.73
26859;BME280;14429;48.346;16.338;2022-07-23T08:38:54;99649.59;;;30.86;40.11
26859;BME280;14429;48.346;16.338;2022-07-23T08:41:20;99639.06;;;30.94;40.24
26859;BME280;14429;48.346;16.338;2022-07-23T08:43:45;99641.41;;;30.79;40.21
26859;BME280;14429;48.346;16.338;2022-07-23T08:46:13;99644.22;;;30.62;40.61
26859;BME280;14429;48.346;16.338;2022-07-23T08:48:38;99637.50;;;30.58;40.97
26859;BME280;14429;48.346;16.338;2022-07-23T08:51:05;99637.69;;;30.74;40.14
26859;BME280;14429;48.346;16.338;2022-07-23T08:53:32;99640.47;;;30.74;40.00
26859;BME280;14429;48.346;16.338;2022-07-23T08:55:59;99637.00;;;30.78;40.12
26859;BME280;14429;48.346;16.338;2022-07-23T08:58:25;99639.47;;;30.68;40.64
26859;BME280;14429;48.346;16.338;2022-07-23T09:00:51;99634.03;;;30.80;39.86
26859;BME280;14429;48.346;16.338;2022-07-23T09:03:19;99635.66;;;30.69;40.70
26859;BME280;14429;48.346;16.338;2022-07-23T09:05:45;99628.25;;;30.81;40.33
26859;BME280;14429;48.346;16.338;2022-07-23T09:08:13;99637.44;;;30.75;40.52
26859;BME280;14429;48.346;16.338;2022-07-23T09:10:50;99638.81;;;30.84;39.62
26859;BME280;14429;48.346;16.338;2022-07-23T09:13:24;99644.59;;;30.94;39.60
26859;BME280;14429;48.346;16.338;2022-07-23T09:15:50;99632.09;;;30.80;40.37
26859;BME280;14429;48.346;16.338;2022-07-23T09:18:17;99637.13;;;30.83;40.25
26859;BME280;14429;48.346;16.338;2022-07-23T09:20:43;99638.81;;;30.84;40.26
26859;BME280;14429;48.346;16.338;2022-07-23T09:23:09;99632.66;;;30.71;40.39
26859;BME280;14429;48.346;16.338;2022-07-23T09:25:34;99627.13;;;30.71;40.18
26859;BME280;14429;48.346;16.338;2022-07-23T09:28:00;99632.44;;;30.72;40.65
26859;BME280;14429;48.346;16.338;2022-07-23T09:30:28;99620.50;;;30.90;39.98
26859;BME280;14429;48.346;16.338;2022-07-23T09:33:07;99617.59;;;30.56;40.71
26859;BME280;14429;48.346;16.338;2022-07-23T09:35:49;99622.00;;;30.74;40.64
26859;BME280;14429;48.346;16.338;2022-07-23T09:38:16;99607.09;;;31.04;40.04
26859;BME280;14429;48.346;16.338;2022-07-23T09:40:44;99611.41;;;31.00;39.85
26859;BME280;14429;48.346;16.338;2022-07-23T09:43:10;99614.13;;;30.89;40.00
26859;BME280;14429;48.346;16.338;2022-07-23T09:45:36;99609.28;;;31.02;39.91
26859;BME280;14429;48.346;16.338;2022-07-23T09:48:11;99604.59;;;31.03;39.14
26859;BME280;14429;48.346;16.338;2022-07-23T09:50:37;99609.91;;;30.75;39.96
26859;BME280;14429;48.346;16.338;2022-07-23T09:53:04;99616.78;;;30.84;40.08
26859;BME280;14429;48.346;16.338;2022-07-23T09:55:31;99606.34;;;31.26;39.30
26859;BME280;14429;48.346;16.338;2022-07-23T09:57:57;99612.06;;;31.14;39.16
26859;BME280;14429;48.346;16.338;2022-07-23T10:00:22;99616.25;;;31.16;39.25
26859;BME280;14429;48.346;16.338;2022-07-23T10:02:49;99610.31;;;31.42;39.06
26859;BME280;14429;48.346;16.338;2022-07-23T10:05:15;99610.75;;;31.27;39.10
26859;BME280;14429;48.346;16.338;2022-07-23T10:07:41;99610.53;;;31.18;39.39
26859;BME280;14429;48.346;16.338;2022-07-23T10:10:09;99609.00;;;31.44;38.52
26859;BME280;14429;48.346;16.338;2022-07-23T10:12:36;99625.53;;;31.21;39.45
26859;BME280;14429;48.346;16.338;2022-07-23T10:15:02;99611.84;;;31.26;38.99
26859;BME280;14429;48.346;16.338;2022-07-23T10:17:28;99619.25;;;31.15;39.29
26859;BME280;14429;48.346;16.338;2022-07-23T10:19:54;99614.41;;;30.99;39.43
26859;BME280;14429;48.346;16.338;2022-07-23T10:22:21;99609.28;;;31.14;39.56
26859;BME280;14429;48.346;16.338;2022-07-23T10:24:58;99613.09;;;31.13;39.50
26859;BME280;14429;48.346;16.338;2022-07-23T10:27:53;99616.84;;;31.07;39.69
26859;BME280;14429;48.346;16.338;2022-07-23T10:30:29;99607.78;;;31.18;39.19
26859;BME280;14429;48.346;16.338;2022-07-23T10:33:15;99605.63;;;30.90;39.97
26859;BME280;14429;48.346;16.338;2022-07-23T10:35:47;99609.34;;;31.36;38.83
26859;BME280;14429;48.346;16.338;2022-07-23T10:38:20;99600.56;;;31.39;38.93
26859;BME280;14429;48.346;16.338;2022-07-23T10:40:55;99594.00;;;31.29;39.12
26859;BME280;14429;48.346;16.338;2022-07-23T10:43:22;99597.94;;;31.21;39.46
26859;BME280;14429;48.346;16.338;2022-07-23T10:45:48;99594.84;;;31.52;39.01
26859;BME280;14429;48.346;16.338;2022-07-23T10:48:16;99587.75;;;31.56;38.81
26859;BME280;14429;48.346;16.338;2022-07-23T10:50:43;99586.78;;;31.28;39.60
26859;BME280;14429;48.346;16.338;2022-07-23T10:53:17;99578.28;;;31.29;39.93
26859;BME280;14429;48.346;16.338;2022-07-23T10:55:45;99584.63;;;31.52;39.77
26859;BME280;14429;48.346;16.338;2022-07-23T10:58:17;99582.13;;;31.28;40.12
26859;BME280;14429;48.346;16.338;2022-07-23T11:00:45;99575.16;;;31.37;40.13
26859;BME280;14429;48.346;16.338;2022-07-23T11:03:28;99575.53;;;31.41;40.09
26859;BME280;14429;48.346;16.338;2022-07-23T11:05:54;99568.66;;;31.20;40.17
26859;BME280;14429;48.346;16.338;2022-07-23T11:08:20;99573.34;;;31.43;40.00
26859;BME280;14429;48.346;16.338;2022-07-23T11:10:52;99564.00;;;31.55;39.49
26859;BME280;14429;48.346;16.338;2022-07-23T11:13:42;99571.44;;;31.54;39.88
26859;BME280;14429;48.346;16.338;2022-07-23T11:16:28;99571.78;;;31.35;39.84
26859;BME280;14429;48.346;16.338;2022-07-23T11:18:56;99575.13;;;31.15;40.20
26859;BME280;14429;48.346;16.338;2022-07-23T11:21:49;99563.56;;;31.69;38.97
26859;BME280;14429;48.346;16.338;2022-07-23T11:24:17;99573.97;;;31.33;39.88
26859;BME280;14429;48.346;16.338;2022-07-23T11:29:49;99566.53;;;31.22;39.97
26859;BME280;14429;48.346;16.338;2022-07-23T11:32:35;99556.78;;;31.20;40.12
26859;BME280;14429;48.346;16.338;2022-07-23T11:35:01;99556.91;;;31.14;40.16
26859;BME280;14429;48.346;16.338;2022-07-23T11:37:35;99556.09;;;31.24;40.64
26859;BME280;14429;48.346;16.338;2022-07-23T11:40:02;99545.28;;;31.68;40.51
26859;BME280;14429;48.346;16.338;2022-07-23T11:42:28;99555.00;;;31.48;39.40
26859;BME280;14429;48.346;16.338;2022-07-23T11:44:53;99552.13;;;31.66;39.09
26859;BME280;14429;48.346;16.338;2022-07-23T11:47:22;99549.59;;;31.53;39.99
26859;BME280;14429;48.346;16.338;2022-07-23T11:49:53;99547.91;;;31.63;39.33
26859;BME280;14429;48.346;16.338;2022-07-23T11:52:19;99538.19;;;31.61;39.17
26859;BME280;14429;48.346;16.338;2022-07-23T11:54:48;99535.59;;;32.04;38.60
26859;BME280;14429;48.346;16.338;2022-07-23T11:57:14;99525.94;;;31.79;38.63
26859;BME280;14429;48.346;16.338;2022-07-23T11:59:39;99524.53;;;31.66;39.37
26859;BME280;14429;48.346;16.338;2022-07-23T12:02:06;99522.00;;;31.75;38.87
26859;BME280;14429;48.346;16.338;2022-07-23T12:04:38;99522.81;;;31.65;39.23
26859;BME280;14429;48.346;16.338;2022-07-23T12:07:23;99525.75;;;31.70;39.52
26859;BME280;14429;48.346;16.338;2022-07-23T12:09:48;99526.94;;;31.62;39.72
26859;BME280;14429;48.346;16.338;2022-07-23T12:12:14;99525.75;;;31.70;39.45
26859;BME280;14429;48.346;16.338;2022-07-23T12:14:47;99531.41;;;32.02;39.12
26859;BME280;14429;48.346;16.338;2022-07-23T12:17:12;99530.25;;;31.64;39.33
26859;BME280;14429;48.346;16.338;2022-07-23T12:19:38;99526.81;;;31.69;39.38
26859;BME280;14429;48.346;16.338;2022-07-23T12:22:06;99525.75;;;31.70;39.19
26859;BME280;14429;48.346;16.338;2022-07-23T12:24:52;99535.94;;;31.69;39.15
26859;BME280;14429;48.346;16.338;2022-07-23T12:27:20;99532.47;;;31.73;39.19
26859;BME280;14429;48.346;16.338;2022-07-23T12:29:46;99525.41;;;32.05;38.74
26859;BME280;14429;48.346;16.338;2022-07-23T12:32:20;99526.44;;;31.88;38.76
26859;BME280;14429;48.346;16.338;2022-07-23T12:34:48;99534.38;;;31.62;39.41
26859;BME280;14429;48.346;16.338;2022-07-23T12:37:34;99524.66;;;31.48;39.30
26859;BME280;14429;48.346;16.338;2022-07-23T12:40:20;99529.19;;;31.54;39.65
26859;BME280;14429;48.346;16.338;2022-07-23T12:42:47;99515.88;;;31.62;39.20
26859;BME280;14429;48.346;16.338;2022-07-23T12:45:13;99516.84;;;31.68;39.06
26859;BME280;14429;48.346;16.338;2022-07-23T12:47:59;99515.16;;;31.67;39.35
26859;BME280;14429;48.346;16.338;2022-07-23T12:50:36;99524.41;;;31.49;39.63
26859;BME280;14429;48.346;16.338;2022-07-23T12:53:06;99523.06;;;31.63;38.99